createdAt,value
2019-04-21T00:01:55.963Z,10.19
2019-04-21T00:06:26.389Z,10.10
2019-04-21T00:10:33.352Z,9.95
2019-04-21T00:14:26.175Z,9.88
2019-04-21T00:18:49.866Z,9.79
2019-04-21T00:22:59.054Z,9.66
2019-04-21T00:27:12.542Z,9.62
2019-04-21T00:31:15.320Z,9.46
2019-04-21T00:35:13.169Z,9.36
2019-04-21T00:39:43.668Z,9.46
2019-04-21T00:43:38.824Z,9.34
2019-04-21T00:47:46.196Z,9.29
2019-04-21T00:52:25.188Z,9.42
2019-04-21T00:56:23.217Z,9.36
2019-04-21T01:00:27.767Z,9.14
2019-04-21T01:04:38.216Z,9.06
2019-04-21T01:08:41.430Z,9.00
2019-04-21T01:12:52.673Z,8.99
2019-04-21T01:16:57.410Z,8.97
2019-04-21T01:20:40.906Z,8.91
2019-04-21T01:24:48.825Z,8.93
2019-04-21T01:29:06.999Z,8.84
2019-04-21T01:33:21.701Z,8.85
2019-04-21T01:37:32.944Z,8.95
2019-04-21T01:41:33.654Z,9.04
2019-04-21T01:45:36.994Z,8.98
2019-04-21T01:49:37.018Z,8.85
2019-04-21T01:54:07.654Z,8.76
2019-04-21T01:58:03.319Z,8.61
2019-04-21T02:02:20.302Z,8.48
2019-04-21T02:10:37.881Z,8.36
2019-04-21T02:14:40.030Z,8.42
2019-04-21T02:18:42.195Z,8.26
2019-04-21T02:23:05.941Z,8.16
2019-04-21T02:27:00.489Z,8.17
2019-04-21T02:31:22.623Z,8.06
2019-04-21T02:35:42.866Z,8.06
2019-04-21T02:43:25.609Z,8.00
2019-04-21T02:47:50.387Z,7.90
2019-04-21T02:51:52.485Z,7.80
2019-04-21T02:55:51.431Z,7.86
2019-04-21T03:00:13.639Z,7.84
2019-04-21T03:08:25.305Z,7.80
2019-04-21T03:12:24.657Z,7.77
2019-04-21T03:16:31.136Z,7.72
2019-04-21T03:28:52.155Z,7.49
2019-04-21T03:33:46.951Z,7.23
2019-04-21T03:37:14.035Z,7.24
2019-04-21T03:41:26.744Z,7.36
2019-04-21T03:45:32.693Z,7.44
2019-04-21T03:49:51.289Z,7.46
2019-04-21T03:53:33.921Z,7.49
2019-04-21T03:57:55.448Z,7.52
2019-04-21T04:02:14.806Z,7.27
2019-04-21T04:06:13.748Z,7.15
2019-04-21T04:10:13.550Z,7.08
2019-04-21T04:14:26.778Z,7.13
2019-04-21T04:18:39.111Z,7.06
2019-04-21T04:26:41.013Z,6.99
2019-04-21T04:30:45.300Z,7.01
2019-04-21T04:34:57.218Z,7.07
2019-04-21T04:39:35.814Z,7.08
2019-04-21T04:47:24.343Z,7.19
2019-04-21T04:51:48.076Z,7.22
2019-04-21T04:55:47.914Z,7.26
2019-04-21T04:59:47.513Z,7.35
2019-04-21T05:03:58.547Z,7.36
2019-04-21T05:08:10.123Z,7.46
2019-04-21T05:12:06.000Z,7.51
2019-04-21T05:16:31.609Z,7.58
2019-04-21T05:20:17.115Z,7.65
2019-04-21T05:24:16.318Z,7.84
2019-04-21T05:28:20.097Z,8.11
2019-04-21T05:32:45.195Z,9.30
2019-04-21T05:36:55.480Z,11.68
2019-04-21T05:40:48.336Z,12.95
2019-04-21T05:45:12.749Z,12.08
2019-04-21T05:49:29.759Z,14.10
2019-04-21T05:53:39.308Z,17.68
2019-04-21T05:57:39.465Z,20.39
2019-04-21T06:01:58.431Z,22.14
2019-04-21T06:06:09.981Z,23.39
2019-04-21T06:10:22.497Z,24.45
2019-04-21T06:14:14.483Z,25.38
2019-04-21T06:18:27.413Z,26.12
2019-04-21T06:22:27.409Z,26.86
2019-04-21T06:26:51.810Z,27.56
2019-04-21T06:30:56.329Z,28.03
2019-04-21T06:35:08.277Z,28.63
2019-04-21T06:43:13.012Z,29.48
2019-04-21T06:47:06.382Z,29.81
2019-04-21T06:51:20.362Z,30.28
2019-04-21T06:55:20.490Z,30.74
2019-04-21T06:59:26.546Z,30.48
2019-04-21T07:03:38.784Z,29.38
2019-04-21T07:07:43.695Z,24.53
2019-04-21T07:11:42.169Z,20.95
2019-04-21T07:15:58.810Z,19.15
2019-04-21T07:24:14.146Z,17.25
2019-04-21T07:28:10.247Z,16.97
2019-04-21T07:32:22.154Z,16.72
2019-04-21T07:36:39.805Z,16.63
2019-04-21T07:40:29.016Z,16.51
2019-04-21T07:44:37.807Z,16.56
2019-04-21T07:48:50.102Z,16.65
2019-04-21T07:53:08.470Z,16.75
2019-04-21T07:56:58.965Z,16.77
2019-04-21T08:01:18.083Z,16.71
2019-04-21T08:09:29.250Z,16.89
2019-04-21T08:13:39.251Z,17.01
2019-04-21T08:17:41.400Z,17.10
2019-04-21T08:21:55.817Z,17.19
2019-04-21T08:30:05.036Z,17.39
2019-04-21T08:34:13.971Z,17.53
2019-04-21T08:38:16.481Z,17.70
2019-04-21T08:42:25.416Z,17.87
2019-04-21T08:46:36.755Z,17.98
2019-04-21T08:50:37.653Z,18.14
2019-04-21T08:54:47.763Z,18.28
2019-04-21T08:59:12.697Z,18.41
2019-04-21T09:03:25.504Z,18.55
2019-04-21T09:07:39.393Z,18.70
2019-04-21T09:11:40.484Z,18.85
2019-04-21T09:15:47.150Z,18.96
2019-04-21T09:20:01.783Z,19.13
2019-04-21T09:24:00.602Z,19.33
2019-04-21T09:28:06.983Z,19.44
2019-04-21T09:31:59.173Z,19.55
2019-04-21T09:36:06.188Z,19.67
2019-04-21T09:40:09.082Z,19.78
2019-04-21T09:44:20.813Z,19.90
2019-04-21T09:48:22.424Z,19.99
2019-04-21T09:52:39.161Z,20.06
2019-04-21T09:56:45.468Z,20.15
2019-04-21T10:00:49.895Z,20.34
2019-04-21T10:04:50.154Z,20.50
2019-04-21T10:09:01.219Z,20.65
2019-04-21T10:13:02.955Z,20.78
2019-04-21T10:17:27.766Z,20.91
2019-04-21T10:21:33.914Z,20.97
2019-04-21T10:25:38.840Z,21.12
2019-04-21T10:29:45.364Z,21.23
2019-04-21T10:33:50.372Z,21.42
2019-04-21T10:38:10.480Z,21.50
2019-04-21T10:42:01.902Z,21.50
2019-04-21T10:46:06.877Z,21.68
2019-04-21T10:50:13.079Z,21.84
2019-04-21T10:54:18.084Z,21.91
2019-04-21T10:58:28.481Z,22.00
2019-04-21T11:02:41.192Z,22.16
2019-04-21T11:06:46.451Z,22.21
2019-04-21T11:10:51.961Z,22.24
2019-04-21T11:14:56.993Z,22.29
2019-04-21T11:19:02.066Z,22.42
2019-04-21T11:23:08.026Z,22.48
2019-04-21T11:27:12.901Z,22.52
2019-04-21T11:31:18.803Z,22.61
2019-04-21T11:35:23.877Z,22.67
2019-04-21T11:39:39.258Z,22.68
2019-04-21T11:43:37.222Z,22.59
2019-04-21T11:47:43.755Z,22.46
2019-04-21T11:51:49.033Z,22.47
2019-04-21T11:55:55.538Z,22.58
2019-04-21T12:00:01.773Z,22.46
2019-04-21T12:04:09.739Z,22.52
2019-04-21T12:08:22.932Z,22.55
2019-04-21T12:12:21.404Z,22.55
2019-04-21T12:16:26.246Z,22.60
2019-04-21T12:20:31.229Z,22.66
2019-04-21T12:24:38.068Z,22.76
2019-04-21T12:28:45.957Z,22.85
2019-04-21T12:32:58.482Z,22.92
2019-04-21T12:37:04.618Z,22.90
2019-04-21T12:41:10.724Z,22.91
2019-04-21T12:45:17.313Z,22.92
2019-04-21T12:49:22.311Z,22.85
2019-04-21T12:53:27.692Z,22.95
2019-04-21T12:57:33.263Z,23.14
2019-04-21T13:01:39.015Z,23.24
2019-04-21T13:05:45.330Z,23.32
2019-04-21T13:09:50.510Z,23.39
2019-04-21T13:13:55.745Z,23.49
2019-04-21T13:18:00.764Z,23.45
2019-04-21T13:22:06.058Z,23.38
2019-04-21T13:26:11.386Z,23.44
2019-04-21T13:30:18.152Z,23.53
2019-04-21T13:34:24.113Z,23.68
2019-04-21T13:38:36.930Z,23.75
2019-04-21T13:42:42.676Z,23.80
2019-04-21T13:46:46.972Z,23.84
2019-04-21T13:50:53.483Z,23.86
2019-04-21T13:54:58.439Z,23.84
2019-04-21T13:59:04.218Z,23.82
2019-04-21T14:03:10.422Z,23.81
2019-04-21T14:07:16.457Z,23.77
2019-04-21T14:11:21.386Z,23.65
2019-04-21T14:15:26.422Z,23.63
2019-04-21T14:19:31.321Z,23.75
2019-04-21T14:23:43.685Z,23.81
2019-04-21T14:27:45.707Z,23.86
2019-04-21T14:31:50.553Z,23.78
2019-04-21T14:35:56.754Z,23.78
2019-04-21T14:40:07.494Z,23.82
2019-04-21T14:44:09.090Z,23.89
2019-04-21T14:48:32.865Z,23.94
2019-04-21T14:52:39.171Z,23.91
2019-04-21T14:56:44.964Z,23.81
2019-04-21T15:00:53.075Z,23.82
2019-04-21T15:04:57.929Z,23.95
2019-04-21T15:09:03.380Z,24.03
2019-04-21T15:13:08.343Z,24.04
2019-04-21T15:17:15.922Z,24.05
2019-04-21T15:21:19.836Z,24.02
2019-04-21T15:25:26.079Z,24.01
2019-04-21T15:29:30.982Z,23.99
2019-04-21T15:33:36.982Z,23.92
2019-04-21T15:37:42.112Z,23.90
2019-04-21T15:41:48.211Z,23.90
2019-04-21T15:45:53.727Z,23.84
2019-04-21T15:50:06.599Z,23.78
2019-04-21T15:54:06.878Z,23.75
2019-04-21T15:58:16.516Z,23.79
2019-04-21T16:02:40.822Z,23.78
2019-04-21T16:06:45.785Z,23.76
2019-04-21T16:10:56.531Z,23.68
2019-04-21T16:14:58.692Z,23.66
2019-04-21T16:19:03.988Z,23.58
2019-04-21T16:23:10.715Z,23.55
2019-04-21T16:27:15.650Z,23.53
2019-04-21T16:31:20.553Z,23.48
2019-04-21T16:35:26.732Z,23.46
2019-04-21T16:39:33.552Z,23.39
2019-04-21T16:43:38.560Z,23.30
2019-04-21T16:47:44.218Z,23.22
2019-04-21T16:51:51.922Z,23.18
2019-04-21T16:56:02.601Z,23.12
2019-04-21T17:00:13.850Z,23.01
2019-04-21T17:04:20.271Z,22.91
2019-04-21T17:08:26.122Z,22.83
2019-04-21T17:12:31.099Z,22.74
2019-04-21T17:16:55.162Z,22.66
2019-04-21T17:20:50.139Z,22.58
2019-04-21T17:24:50.569Z,22.51
2019-04-21T17:28:56.712Z,22.41
2019-04-21T17:33:01.731Z,22.33
2019-04-21T17:37:06.764Z,22.25
2019-04-21T17:41:21.600Z,22.15
2019-04-21T17:45:19.318Z,22.05
2019-04-21T17:49:25.222Z,21.90
2019-04-21T17:53:41.919Z,21.72
2019-04-21T17:58:00.845Z,21.53
2019-04-21T18:02:11.002Z,21.26
2019-04-21T18:06:10.565Z,21.01
2019-04-21T18:10:21.805Z,20.73
2019-04-21T18:14:11.416Z,20.45
2019-04-21T18:18:16.726Z,20.18
2019-04-21T18:22:40.957Z,19.93
2019-04-21T18:26:52.146Z,19.69
2019-04-21T18:31:06.886Z,19.45
2019-04-21T18:35:17.734Z,19.18
2019-04-21T18:39:40.639Z,18.86
2019-04-21T18:44:04.057Z,18.62
2019-04-21T18:48:10.280Z,18.43
2019-04-21T18:52:17.039Z,18.17
2019-04-21T18:56:16.733Z,17.89
2019-04-21T19:00:26.216Z,17.61
2019-04-21T19:04:30.028Z,17.38
2019-04-21T19:08:57.790Z,17.27
2019-04-21T19:17:29.112Z,17.05
2019-04-21T19:21:11.188Z,16.87
2019-04-21T19:25:34.578Z,16.64
2019-04-21T19:33:29.800Z,16.45
2019-04-21T19:37:24.393Z,16.36
2019-04-21T19:41:41.029Z,16.33
2019-04-21T19:45:45.920Z,16.24
2019-04-21T19:50:00.350Z,16.11
2019-04-21T19:53:55.990Z,15.93
2019-04-21T19:57:53.037Z,15.74
2019-04-21T20:01:58.303Z,15.67
2019-04-21T20:06:11.819Z,15.50
2019-04-21T20:10:44.498Z,15.23
2019-04-21T20:14:47.818Z,14.89
2019-04-21T20:18:32.815Z,14.44
2019-04-21T20:22:36.382Z,14.24
2019-04-21T20:26:41.671Z,14.12
2019-04-21T20:31:03.681Z,13.95
2019-04-21T20:35:18.274Z,13.89
2019-04-21T20:39:05.376Z,13.89
2019-04-21T20:43:33.719Z,13.94
2019-04-21T20:47:20.748Z,13.99
2019-04-21T20:51:35.641Z,14.00
2019-04-21T20:55:35.408Z,13.97
2019-04-21T20:59:43.929Z,13.67
2019-04-21T21:03:51.777Z,13.35
2019-04-21T21:08:10.239Z,13.02
2019-04-21T21:20:24.829Z,12.63
2019-04-21T21:24:39.156Z,12.51
2019-04-21T21:28:34.820Z,12.40
2019-04-21T21:32:44.610Z,12.21
2019-04-21T21:36:50.657Z,12.11
2019-04-21T21:40:51.726Z,12.12
2019-04-21T21:44:49.533Z,11.96
2019-04-21T21:49:01.956Z,11.76
2019-04-21T21:53:04.215Z,11.59
2019-04-21T21:57:04.942Z,11.45
2019-04-21T22:01:15.157Z,11.37
2019-04-21T22:05:24.379Z,11.33
2019-04-21T22:09:28.363Z,11.21
2019-04-21T22:13:43.587Z,11.23
2019-04-21T22:17:54.063Z,11.12
2019-04-21T22:22:08.342Z,11.17
2019-04-21T22:25:53.487Z,11.14
2019-04-21T22:30:03.290Z,11.03
2019-04-21T22:34:10.487Z,10.85
2019-04-21T22:38:28.379Z,10.69
2019-04-21T22:42:26.677Z,10.68
2019-04-21T22:46:26.380Z,10.55
2019-04-21T22:50:34.920Z,10.40
2019-04-21T22:54:43.262Z,10.36
2019-04-21T22:58:47.964Z,10.44
2019-04-21T23:03:01.321Z,10.61
2019-04-21T23:07:02.841Z,10.75
2019-04-21T23:11:10.793Z,10.75
2019-04-21T23:15:19.043Z,10.77
2019-04-21T23:19:36.313Z,10.57
2019-04-21T23:23:44.239Z,10.42
2019-04-21T23:27:59.148Z,10.32
2019-04-21T23:31:59.274Z,10.22
2019-04-21T23:35:49.507Z,10.05
2019-04-21T23:40:04.127Z,9.96
2019-04-21T23:44:05.909Z,9.98
2019-04-21T23:48:23.855Z,9.95
2019-04-21T23:52:17.570Z,9.79
2019-04-21T23:56:29.998Z,9.76
